createdAt,value
2022-10-25T00:00:45.556Z,3.07
2022-10-25T00:03:13.114Z,2.73
2022-10-25T00:05:42.315Z,3.10
2022-10-25T00:08:09.481Z,2.70
2022-10-25T00:10:36.716Z,2.97
2022-10-25T00:13:03.870Z,3.97
2022-10-25T00:15:30.961Z,2.60
2022-10-25T00:17:58.389Z,2.70
2022-10-25T00:20:25.525Z,3.00
2022-10-25T00:22:53.944Z,2.77
2022-10-25T00:25:21.218Z,2.50
2022-10-25T00:27:48.317Z,2.57
2022-10-25T00:30:15.570Z,2.30
2022-10-25T00:32:42.723Z,3.13
2022-10-25T00:35:10.131Z,2.43
2022-10-25T00:37:37.263Z,2.27
2022-10-25T00:40:06.564Z,2.37
2022-10-25T00:42:33.709Z,2.80
2022-10-25T00:45:01.868Z,3.10
2022-10-25T00:47:41.074Z,2.80
2022-10-25T00:50:12.369Z,2.27
2022-10-25T00:52:39.801Z,2.03
2022-10-25T00:55:08.864Z,2.03
2022-10-25T00:57:38.880Z,2.90
2022-10-25T01:00:07.752Z,2.13
2022-10-25T01:02:35.537Z,2.50
2022-10-25T01:05:02.866Z,2.10
2022-10-25T01:07:29.966Z,1.73
2022-10-25T01:09:57.631Z,2.07
2022-10-25T01:12:26.085Z,2.03
2022-10-25T01:14:53.454Z,2.03
2022-10-25T01:17:24.785Z,1.90
2022-10-25T01:20:04.709Z,1.83
2022-10-25T01:22:33.784Z,2.07
2022-10-25T01:25:09.468Z,1.70
2022-10-25T01:30:34.232Z,2.60
2022-10-25T01:33:10.029Z,1.80
2022-10-25T01:35:41.415Z,2.40
2022-10-25T01:38:23.406Z,2.77
2022-10-25T01:40:52.916Z,2.03
2022-10-25T01:43:24.137Z,2.20
2022-10-25T01:45:55.565Z,2.80
2022-10-25T01:48:27.162Z,1.80
2022-10-25T01:50:54.223Z,1.90
2022-10-25T01:53:21.360Z,2.13
2022-10-25T01:55:52.074Z,1.97
2022-10-25T01:58:27.354Z,1.90
2022-10-25T02:00:55.982Z,1.80
2022-10-25T02:03:28.093Z,1.90
2022-10-25T02:06:01.061Z,2.27
2022-10-25T02:08:31.131Z,2.10
2022-10-25T02:11:01.965Z,2.17
2022-10-25T02:13:30.863Z,1.90
2022-10-25T02:16:01.291Z,2.20
2022-10-25T02:20:59.317Z,1.93
2022-10-25T02:23:27.126Z,1.97
2022-10-25T02:25:54.854Z,2.40
2022-10-25T02:28:24.058Z,2.50
2022-10-25T02:30:52.911Z,1.90
2022-10-25T02:33:20.060Z,1.90
2022-10-25T02:36:02.051Z,2.20
2022-10-25T02:38:30.482Z,2.43
2022-10-25T02:40:57.959Z,2.20
2022-10-25T02:43:25.129Z,2.30
2022-10-25T02:45:52.271Z,2.60
2022-10-25T02:48:20.566Z,2.60
2022-10-25T02:50:47.662Z,1.90
2022-10-25T02:53:14.782Z,1.73
2022-10-25T02:55:43.231Z,1.93
2022-10-25T02:58:10.336Z,1.90
2022-10-25T03:00:37.496Z,1.77
2022-10-25T03:03:04.598Z,2.10
2022-10-25T03:05:31.683Z,2.23
2022-10-25T03:07:58.781Z,2.10
2022-10-25T03:10:25.841Z,2.17
2022-10-25T03:12:54.309Z,1.87
2022-10-25T03:15:21.381Z,2.50
2022-10-25T03:17:48.799Z,2.27
2022-10-25T03:20:16.067Z,2.30
2022-10-25T03:22:43.145Z,3.00
2022-10-25T03:25:10.285Z,2.53
2022-10-25T03:27:37.392Z,2.47
2022-10-25T03:30:06.461Z,2.87
2022-10-25T03:32:33.548Z,3.20
2022-10-25T03:35:00.623Z,3.03
2022-10-25T03:37:27.748Z,3.43
2022-10-25T03:39:54.835Z,3.57
2022-10-25T03:42:21.937Z,2.70
2022-10-25T03:44:49.326Z,3.73
2022-10-25T03:47:17.802Z,3.43
2022-10-25T03:49:45.097Z,3.23
2022-10-25T03:52:12.307Z,3.80
2022-10-25T03:54:39.492Z,3.00
2022-10-25T03:57:06.557Z,3.07
2022-10-25T03:59:33.648Z,3.60
2022-10-25T04:02:01.290Z,3.30
2022-10-25T04:04:29.724Z,2.87
2022-10-25T04:06:56.807Z,2.77
2022-10-25T04:09:23.891Z,2.90
2022-10-25T04:11:50.975Z,3.10
2022-10-25T04:14:18.043Z,3.00
2022-10-25T04:16:45.124Z,2.60
2022-10-25T04:19:12.203Z,2.43
2022-10-25T04:21:40.804Z,2.60
2022-10-25T04:24:08.290Z,3.40
2022-10-25T04:26:35.807Z,2.63
2022-10-25T04:29:03.160Z,2.20
2022-10-25T04:31:30.576Z,2.60
2022-10-25T04:33:57.671Z,2.30
2022-10-25T04:36:25.172Z,2.57
2022-10-25T04:38:53.664Z,3.23
2022-10-25T04:41:21.183Z,3.13
2022-10-25T04:43:48.546Z,2.30
2022-10-25T04:46:15.684Z,2.63
2022-10-25T04:48:42.925Z,2.67
2022-10-25T04:51:10.953Z,3.10
2022-10-25T04:53:38.144Z,3.07
2022-10-25T04:56:07.763Z,3.27
2022-10-25T04:58:35.203Z,3.40
2022-10-25T05:01:03.209Z,2.70
2022-10-25T05:03:30.428Z,2.93
2022-10-25T05:06:04.988Z,2.87
2022-10-25T05:08:32.103Z,2.97
2022-10-25T05:10:59.185Z,3.20
2022-10-25T05:13:27.611Z,3.43
2022-10-25T05:15:55.384Z,2.67
2022-10-25T05:18:22.506Z,2.60
2022-10-25T05:20:52.041Z,2.80
2022-10-25T05:23:19.069Z,2.90
2022-10-25T05:25:46.174Z,2.93
2022-10-25T05:28:13.246Z,3.23
2022-10-25T05:30:42.137Z,2.80
2022-10-25T05:33:09.714Z,2.87
2022-10-25T05:35:36.794Z,2.10
2022-10-25T05:38:03.911Z,2.73
2022-10-25T05:40:30.978Z,2.93
2022-10-25T05:42:58.108Z,3.10
2022-10-25T05:45:25.197Z,2.43
2022-10-25T05:47:53.607Z,2.87
2022-10-25T05:50:20.722Z,2.80
2022-10-25T05:52:48.050Z,2.73
2022-10-25T05:55:15.371Z,3.00
2022-10-25T05:57:42.452Z,3.67
2022-10-25T06:00:09.904Z,2.53
2022-10-25T06:02:37.010Z,2.93
2022-10-25T06:05:05.721Z,3.33
2022-10-25T06:07:32.810Z,3.60
2022-10-25T06:09:59.896Z,3.03
2022-10-25T06:12:26.999Z,3.70
2022-10-25T06:14:54.094Z,3.57
2022-10-25T06:17:21.197Z,3.30
2022-10-25T06:19:48.290Z,3.23
2022-10-25T06:22:16.696Z,3.47
2022-10-25T06:24:43.806Z,3.60
2022-10-25T06:27:10.927Z,3.87
2022-10-25T06:29:37.984Z,3.27
2022-10-25T06:32:05.322Z,3.80
2022-10-25T06:34:32.438Z,3.53
2022-10-25T06:36:59.536Z,3.87
2022-10-25T06:39:27.987Z,3.20
2022-10-25T06:41:55.072Z,3.73
2022-10-25T06:44:22.173Z,3.53
2022-10-25T06:49:36.343Z,3.60
2022-10-25T06:52:03.423Z,3.67
2022-10-25T06:54:31.903Z,3.70
2022-10-25T06:56:59.002Z,3.63
2022-10-25T06:59:26.141Z,3.67
2022-10-25T07:01:53.300Z,3.70
2022-10-25T07:04:20.485Z,3.73
2022-10-25T07:06:50.048Z,3.77
2022-10-25T07:09:20.089Z,4.40
2022-10-25T07:11:48.503Z,3.57
2022-10-25T07:14:15.681Z,3.97
2022-10-25T07:16:42.770Z,3.80
2022-10-25T07:19:10.051Z,4.13
2022-10-25T07:21:37.178Z,3.83
2022-10-25T07:24:04.556Z,4.77
2022-10-25T07:26:32.938Z,3.70
2022-10-25T07:29:02.116Z,4.30
2022-10-25T07:31:30.218Z,3.80
2022-10-25T07:33:58.899Z,4.30
2022-10-25T07:36:25.993Z,5.30
2022-10-25T07:38:53.096Z,4.57
2022-10-25T07:41:20.387Z,3.27
2022-10-25T07:43:47.497Z,3.87
2022-10-25T07:46:15.986Z,3.57
2022-10-25T07:48:43.196Z,3.40
2022-10-25T07:51:11.475Z,3.03
2022-10-25T07:53:38.676Z,3.47
2022-10-25T07:56:06.912Z,3.93
2022-10-25T07:58:34.931Z,3.67
2022-10-25T08:01:02.872Z,3.20
2022-10-25T08:03:31.962Z,3.80
2022-10-25T08:05:59.404Z,2.97
2022-10-25T08:08:26.805Z,2.97
2022-10-25T08:10:53.924Z,3.70
2022-10-25T08:13:21.088Z,3.20
2022-10-25T08:15:51.610Z,3.10
2022-10-25T08:18:18.845Z,3.30
2022-10-25T08:21:01.676Z,2.80
2022-10-25T08:23:29.756Z,2.80
2022-10-25T08:25:56.911Z,2.50
2022-10-25T08:28:24.032Z,2.63
2022-10-25T08:30:51.167Z,2.33
2022-10-25T08:33:18.312Z,2.87
2022-10-25T08:35:45.395Z,2.87
2022-10-25T08:38:13.862Z,2.30
2022-10-25T08:40:47.431Z,2.73
2022-10-25T08:43:21.865Z,2.30
2022-10-25T08:45:54.403Z,3.63
2022-10-25T08:48:23.650Z,2.73
2022-10-25T08:50:52.711Z,3.60
2022-10-25T08:53:23.317Z,2.50
2022-10-25T08:56:11.715Z,2.30
2022-10-25T08:58:42.192Z,1.97
2022-10-25T09:01:13.600Z,3.10
2022-10-25T09:06:18.798Z,2.33
2022-10-25T09:08:55.169Z,2.70
2022-10-25T09:11:26.810Z,2.13
2022-10-25T09:13:58.847Z,2.00
2022-10-25T09:16:30.522Z,2.60
2022-10-25T09:18:57.960Z,2.57
2022-10-25T09:21:29.502Z,2.20
2022-10-25T09:24:02.164Z,2.53
2022-10-25T09:26:35.110Z,2.00
2022-10-25T09:29:03.763Z,1.67
2022-10-25T09:31:32.031Z,2.23
2022-10-25T09:34:03.984Z,2.40
2022-10-25T09:36:34.193Z,1.87
2022-10-25T09:39:05.522Z,2.23
2022-10-25T09:41:35.144Z,2.10
2022-10-25T09:44:04.979Z,2.30
2022-10-25T09:46:34.873Z,2.47
2022-10-25T09:49:06.923Z,3.10
2022-10-25T09:51:36.541Z,1.97
2022-10-25T09:54:11.305Z,2.70
2022-10-25T09:56:39.831Z,2.20
2022-10-25T09:59:06.954Z,2.33
2022-10-25T10:01:35.236Z,1.80
2022-10-25T10:04:06.628Z,2.30
2022-10-25T10:06:35.019Z,2.33
2022-10-25T10:09:04.615Z,2.63
2022-10-25T10:11:33.585Z,1.80
2022-10-25T10:14:04.947Z,2.30
2022-10-25T10:16:36.671Z,1.73
2022-10-25T10:19:14.389Z,2.30
2022-10-25T10:21:43.201Z,2.20
2022-10-25T10:24:16.350Z,1.80
2022-10-25T10:26:46.333Z,2.07
2022-10-25T10:29:17.437Z,1.70
2022-10-25T10:31:47.075Z,2.93
2022-10-25T10:34:23.236Z,2.60
2022-10-25T10:37:01.621Z,2.43
2022-10-25T10:39:28.807Z,2.47
2022-10-25T10:41:58.176Z,2.07
2022-10-25T10:44:25.310Z,1.90
2022-10-25T10:46:53.801Z,2.87
2022-10-25T10:49:21.481Z,2.17
2022-10-25T10:51:48.633Z,1.80
2022-10-25T10:54:22.676Z,2.40
2022-10-25T10:56:53.554Z,2.27
2022-10-25T10:59:30.417Z,2.40
2022-10-25T11:01:57.880Z,2.10
2022-10-25T11:04:26.186Z,2.60
2022-10-25T11:06:53.553Z,2.57
2022-10-25T11:09:23.331Z,2.10
2022-10-25T11:12:05.562Z,2.07
2022-10-25T11:14:34.225Z,2.20
2022-10-25T11:17:03.125Z,2.13
2022-10-25T11:19:44.345Z,3.07
2022-10-25T11:22:18.729Z,2.13
2022-10-25T11:24:50.573Z,2.60
2022-10-25T11:27:21.892Z,1.80
2022-10-25T11:29:59.339Z,2.20
2022-10-25T11:32:43.139Z,2.50
2022-10-25T11:35:18.873Z,1.93
2022-10-25T11:37:50.548Z,2.00
2022-10-25T11:40:19.066Z,1.70
2022-10-25T11:42:55.601Z,1.83
2022-10-25T11:45:26.971Z,1.73
2022-10-25T11:48:02.852Z,1.67
2022-10-25T11:50:34.974Z,1.60
2022-10-25T11:53:08.417Z,2.87
2022-10-25T11:55:39.532Z,1.53
2022-10-25T11:58:11.526Z,1.60
2022-10-25T12:00:46.423Z,1.70
2022-10-25T12:03:19.240Z,2.10
2022-10-25T12:05:47.962Z,1.90
2022-10-25T12:08:21.440Z,2.57
2022-10-25T12:10:50.149Z,2.40
2022-10-25T12:13:18.568Z,2.23
2022-10-25T12:15:48.120Z,1.80
2022-10-25T12:18:17.062Z,2.00
2022-10-25T12:20:45.878Z,2.00
2022-10-25T12:23:14.505Z,1.83
2022-10-25T12:25:43.837Z,2.00
2022-10-25T12:28:15.090Z,1.50
2022-10-25T12:30:43.229Z,2.30
2022-10-25T12:33:16.074Z,1.93
2022-10-25T12:35:45.609Z,2.17
2022-10-25T12:38:16.058Z,2.23
2022-10-25T12:40:44.974Z,1.67
2022-10-25T12:43:16.950Z,2.00
2022-10-25T12:45:57.540Z,1.70
2022-10-25T12:48:38.935Z,1.73
2022-10-25T12:51:15.171Z,1.50
2022-10-25T12:54:10.561Z,1.73
2022-10-25T12:56:44.536Z,2.40
2022-10-25T12:59:31.212Z,2.27
2022-10-25T13:02:05.462Z,1.93
2022-10-25T13:04:37.370Z,1.97
2022-10-25T13:07:05.626Z,2.17
2022-10-25T13:09:33.661Z,1.73
2022-10-25T13:12:03.311Z,2.50
2022-10-25T13:14:31.566Z,1.47
2022-10-25T13:17:13.583Z,1.70
2022-10-25T13:19:53.977Z,1.87
2022-10-25T13:22:35.847Z,1.40
2022-10-25T13:25:06.073Z,2.10
2022-10-25T13:27:33.589Z,1.50
2022-10-25T13:30:02.443Z,1.67
2022-10-25T13:32:30.078Z,1.40
2022-10-25T13:34:58.590Z,1.90
2022-10-25T13:37:42.232Z,1.30
2022-10-25T13:40:19.793Z,2.23
2022-10-25T13:42:47.991Z,1.93
2022-10-25T13:45:21.319Z,1.70
2022-10-25T13:47:49.769Z,1.30
2022-10-25T13:50:20.706Z,1.87
2022-10-25T13:52:57.795Z,1.50
2022-10-25T13:55:28.014Z,1.40
2022-10-25T13:57:56.005Z,1.73
2022-10-25T14:00:28.363Z,1.20
2022-10-25T14:03:02.953Z,0.97
2022-10-25T14:05:44.917Z,1.20
2022-10-25T14:08:15.670Z,1.80
2022-10-25T14:10:43.563Z,1.93
2022-10-25T14:13:19.923Z,2.50
2022-10-25T14:15:50.804Z,1.30
2022-10-25T14:18:19.878Z,1.83
2022-10-25T14:20:48.215Z,1.63
2022-10-25T14:23:19.082Z,1.53
2022-10-25T14:25:50.306Z,1.97
2022-10-25T14:28:21.481Z,2.20
2022-10-25T14:30:49.852Z,1.20
2022-10-25T14:33:21.945Z,1.73
2022-10-25T14:35:49.949Z,2.47
2022-10-25T14:38:19.765Z,2.40
2022-10-25T14:40:51.241Z,2.10
2022-10-25T14:43:22.721Z,1.27
2022-10-25T14:45:55.874Z,1.60
2022-10-25T14:48:23.054Z,1.50
2022-10-25T14:50:50.249Z,1.50
2022-10-25T14:53:19.216Z,1.30
2022-10-25T14:55:50.742Z,1.50
2022-10-25T14:58:17.944Z,1.50
2022-10-25T15:00:52.644Z,1.57
2022-10-25T15:03:19.791Z,1.40
2022-10-25T15:05:46.886Z,1.43
2022-10-25T15:08:17.741Z,1.50
2022-10-25T15:10:49.003Z,1.00
2022-10-25T15:13:17.255Z,1.67
2022-10-25T15:15:45.294Z,1.20
2022-10-25T15:18:33.127Z,1.37
2022-10-25T15:21:04.724Z,0.93
2022-10-25T15:23:32.061Z,1.23
2022-10-25T15:26:19.370Z,1.60
2022-10-25T15:28:49.678Z,1.57
2022-10-25T15:31:23.662Z,1.30
2022-10-25T15:33:58.466Z,1.40
2022-10-25T15:36:26.211Z,1.83
2022-10-25T15:39:16.588Z,1.50
2022-10-25T15:41:43.813Z,1.60
2022-10-25T15:44:10.949Z,1.60
2022-10-25T15:46:38.167Z,1.37
2022-10-25T15:49:06.580Z,1.80
2022-10-25T15:51:34.258Z,1.80
2022-10-25T15:54:01.368Z,1.43
2022-10-25T15:56:28.566Z,1.50
2022-10-25T15:58:57.025Z,1.70
2022-10-25T16:01:24.173Z,1.63
2022-10-25T16:03:51.310Z,1.70
2022-10-25T16:06:18.415Z,1.50
2022-10-25T16:08:45.510Z,1.40
2022-10-25T16:11:13.609Z,1.90
2022-10-25T16:13:40.831Z,1.53
2022-10-25T16:16:28.071Z,2.37
2022-10-25T16:19:01.157Z,1.77
2022-10-25T16:21:30.666Z,1.90
2022-10-25T16:23:57.751Z,1.90
2022-10-25T16:26:25.832Z,2.00
2022-10-25T16:28:52.937Z,2.10
2022-10-25T16:31:21.345Z,1.93
2022-10-25T16:33:48.421Z,2.13
2022-10-25T16:36:15.512Z,2.47
2022-10-25T16:38:42.594Z,1.90
2022-10-25T16:41:21.652Z,2.67
2022-10-25T16:43:49.298Z,2.00
2022-10-25T16:46:16.477Z,1.90
2022-10-25T16:48:44.957Z,2.10
2022-10-25T16:51:12.877Z,1.90
2022-10-25T16:53:39.988Z,1.73
2022-10-25T16:56:07.242Z,1.93
2022-10-25T16:58:34.340Z,2.33
2022-10-25T17:01:01.518Z,2.40
2022-10-25T17:03:28.732Z,2.30
2022-10-25T17:05:57.251Z,2.50
2022-10-25T17:08:24.333Z,2.20
2022-10-25T17:10:51.416Z,2.27
2022-10-25T17:13:18.500Z,2.30
2022-10-25T17:15:45.600Z,2.47
2022-10-25T17:18:13.962Z,2.53
2022-10-25T17:20:42.422Z,2.13
2022-10-25T17:23:10.862Z,2.70
2022-10-25T17:25:37.988Z,3.40
2022-10-25T17:28:05.203Z,3.20
2022-10-25T17:30:32.280Z,3.40
2022-10-25T17:32:59.367Z,2.90
2022-10-25T17:35:29.630Z,3.30
2022-10-25T17:37:57.182Z,4.03
2022-10-25T17:40:25.651Z,3.17
2022-10-25T17:42:52.769Z,3.60
2022-10-25T17:45:19.847Z,3.77
2022-10-25T17:47:47.147Z,4.60
2022-10-25T17:50:14.447Z,3.50
2022-10-25T17:52:41.539Z,4.20
2022-10-25T17:55:09.609Z,4.23
2022-10-25T17:57:38.061Z,4.67
2022-10-25T18:00:05.572Z,4.73
2022-10-25T18:02:39.366Z,2.97
2022-10-25T18:05:19.838Z,3.77
2022-10-25T18:07:48.308Z,4.50
2022-10-25T18:10:15.704Z,4.10
2022-10-25T18:12:44.132Z,3.70
2022-10-25T18:15:11.557Z,4.23
2022-10-25T18:17:38.688Z,4.63
2022-10-25T18:20:06.235Z,4.00
2022-10-25T18:22:33.325Z,3.77
2022-10-25T18:25:00.397Z,4.63
2022-10-25T18:27:27.590Z,3.97
2022-10-25T18:29:55.985Z,4.67
2022-10-25T18:32:23.075Z,4.50
2022-10-25T18:34:50.174Z,3.97
2022-10-25T18:37:17.298Z,4.57
2022-10-25T18:39:44.400Z,3.97
2022-10-25T18:42:11.563Z,4.73
2022-10-25T18:44:38.659Z,4.23
2022-10-25T18:47:07.195Z,4.60
2022-10-25T18:49:34.298Z,5.13
2022-10-25T18:52:01.367Z,5.10
2022-10-25T18:54:28.474Z,5.13
2022-10-25T18:56:55.582Z,5.60
2022-10-25T18:59:22.693Z,5.37
2022-10-25T19:01:49.940Z,5.40
2022-10-25T19:04:18.458Z,4.97
2022-10-25T19:06:45.562Z,5.37
2022-10-25T19:09:12.650Z,4.90
2022-10-25T19:11:39.714Z,4.97
2022-10-25T19:14:06.835Z,5.50
2022-10-25T19:16:33.891Z,5.27
2022-10-25T19:19:01.900Z,6.07
2022-10-25T19:21:30.336Z,5.47
2022-10-25T19:23:57.424Z,5.57
2022-10-25T19:26:24.526Z,6.03
2022-10-25T19:28:55.609Z,5.60
2022-10-25T19:31:22.718Z,5.77
2022-10-25T19:33:51.533Z,6.20
2022-10-25T19:36:19.036Z,6.70
2022-10-25T19:38:47.504Z,5.90
2022-10-25T19:41:15.346Z,5.63
2022-10-25T19:43:42.424Z,5.60
2022-10-25T19:46:09.609Z,7.63
2022-10-25T19:48:36.771Z,6.93
2022-10-25T19:51:04.722Z,5.70
2022-10-25T19:53:31.805Z,4.43
2022-10-25T19:56:00.832Z,5.27
2022-10-25T19:58:27.980Z,5.10
2022-10-25T20:01:01.889Z,5.07
2022-10-25T20:03:29.055Z,5.87
2022-10-25T20:06:00.003Z,5.40
2022-10-25T20:08:27.201Z,4.43
2022-10-25T20:10:54.399Z,4.53
2022-10-25T20:13:22.806Z,4.33
2022-10-25T20:15:50.291Z,4.40
2022-10-25T20:18:17.824Z,4.20
2022-10-25T20:20:44.921Z,3.93
2022-10-25T20:23:12.030Z,4.27
2022-10-25T20:25:39.135Z,3.93
2022-10-25T20:28:06.233Z,4.20
2022-10-25T20:30:34.709Z,4.40
2022-10-25T20:33:01.786Z,4.40
2022-10-25T20:35:28.903Z,4.27
2022-10-25T20:37:56.000Z,5.03
2022-10-25T20:40:23.106Z,4.60
2022-10-25T20:42:50.254Z,4.07
2022-10-25T20:45:17.409Z,5.20
2022-10-25T20:47:46.147Z,3.57
2022-10-25T20:50:13.450Z,4.37
2022-10-25T20:52:47.936Z,3.83
2022-10-25T20:55:25.876Z,4.87
2022-10-25T20:57:53.007Z,5.87
2022-10-25T21:00:20.717Z,4.63
2022-10-25T21:02:49.253Z,4.00
2022-10-25T21:05:16.442Z,5.10
2022-10-25T21:07:43.524Z,4.60
2022-10-25T21:10:10.621Z,4.57
2022-10-25T21:12:37.688Z,4.13
2022-10-25T21:15:08.062Z,4.83
2022-10-25T21:17:38.167Z,4.43
2022-10-25T21:20:07.469Z,4.93
2022-10-25T21:22:34.588Z,4.30
2022-10-25T21:25:01.647Z,4.03
2022-10-25T21:27:28.740Z,4.33
2022-10-25T21:29:55.804Z,3.83
2022-10-25T21:32:22.921Z,3.87
2022-10-25T21:34:50.006Z,4.60
2022-10-25T21:37:18.461Z,4.53
2022-10-25T21:39:45.552Z,4.30
2022-10-25T21:42:12.647Z,4.40
2022-10-25T21:44:39.742Z,4.10
2022-10-25T21:47:06.872Z,4.30
2022-10-25T21:49:33.989Z,3.83
2022-10-25T21:52:01.169Z,3.90
2022-10-25T21:54:29.612Z,3.53
2022-10-25T21:56:56.709Z,3.57
2022-10-25T21:59:23.777Z,3.33
2022-10-25T22:01:51.056Z,5.27
2022-10-25T22:04:18.242Z,4.10
2022-10-25T22:06:45.328Z,3.73
2022-10-25T22:09:12.384Z,3.77
2022-10-25T22:11:40.829Z,3.47
2022-10-25T22:14:09.450Z,3.30
2022-10-25T22:16:36.827Z,3.43
2022-10-25T22:19:05.053Z,3.60
2022-10-25T22:21:33.108Z,3.80
2022-10-25T22:24:00.168Z,4.20
2022-10-25T22:26:27.271Z,4.17
2022-10-25T22:28:56.510Z,3.57
2022-10-25T22:31:23.854Z,3.70
2022-10-25T22:33:52.915Z,3.50
2022-10-25T22:36:20.613Z,3.67
2022-10-25T22:38:47.979Z,3.50
2022-10-25T22:41:15.862Z,3.77
2022-10-25T22:43:43.321Z,3.27
2022-10-25T22:46:13.189Z,3.70
2022-10-25T22:48:41.249Z,3.03
2022-10-25T22:51:08.682Z,3.30
2022-10-25T22:53:36.146Z,3.60
2022-10-25T22:56:04.063Z,3.37
2022-10-25T22:58:32.060Z,3.10
2022-10-25T23:00:59.450Z,3.57
2022-10-25T23:03:28.023Z,2.70
2022-10-25T23:05:58.322Z,3.37
2022-10-25T23:08:25.426Z,3.30
2022-10-25T23:10:58.073Z,3.33
2022-10-25T23:13:25.171Z,2.67
2022-10-25T23:15:52.247Z,2.67
2022-10-25T23:18:19.393Z,2.77
2022-10-25T23:20:50.221Z,2.80
2022-10-25T23:23:17.372Z,2.50
2022-10-25T23:25:44.836Z,3.00
2022-10-25T23:28:12.253Z,2.90
2022-10-25T23:30:39.684Z,2.40
2022-10-25T23:33:07.119Z,2.60
2022-10-25T23:35:34.639Z,2.87
2022-10-25T23:38:03.218Z,2.90
2022-10-25T23:40:30.566Z,2.50
2022-10-25T23:42:57.877Z,3.03
2022-10-25T23:45:25.344Z,2.70
2022-10-25T23:47:52.477Z,2.70
2022-10-25T23:50:19.573Z,2.90
2022-10-25T23:52:47.041Z,2.73
2022-10-25T23:55:15.772Z,3.00
2022-10-25T23:57:42.865Z,3.07
